createdAt,value
2022-07-27T00:00:04.131Z,15.88
2022-07-27T00:01:04.190Z,15.86
2022-07-27T00:02:04.127Z,15.88
2022-07-27T00:03:04.123Z,15.92
2022-07-27T00:04:04.198Z,15.90
2022-07-27T00:05:04.124Z,15.90
2022-07-27T00:06:04.129Z,15.88
2022-07-27T00:07:04.121Z,15.86
2022-07-27T00:08:04.124Z,15.84
2022-07-27T00:09:04.118Z,15.79
2022-07-27T00:10:04.127Z,15.83
2022-07-27T00:11:04.122Z,15.83
2022-07-27T00:12:04.123Z,15.88
2022-07-27T00:13:04.120Z,15.83
2022-07-27T00:14:04.138Z,15.82
2022-07-27T00:15:04.121Z,15.77
2022-07-27T00:16:04.139Z,15.75
2022-07-27T00:17:04.115Z,15.76
2022-07-27T00:18:04.125Z,15.75
2022-07-27T00:19:04.116Z,15.73
2022-07-27T00:20:04.129Z,15.75
2022-07-27T00:21:04.116Z,15.75
2022-07-27T00:22:04.118Z,15.72
2022-07-27T00:23:04.116Z,15.64
2022-07-27T00:24:04.118Z,15.62
2022-07-27T00:25:04.112Z,15.65
2022-07-27T00:26:04.115Z,15.68
2022-07-27T00:27:04.115Z,15.65
2022-07-27T00:28:04.125Z,15.64
2022-07-27T00:29:04.129Z,15.58
2022-07-27T00:30:04.115Z,15.57
2022-07-27T00:31:04.191Z,15.64
2022-07-27T00:32:04.111Z,15.61
2022-07-27T00:33:04.117Z,15.59
2022-07-27T00:34:04.112Z,15.67
2022-07-27T00:35:04.110Z,15.59
2022-07-27T00:36:04.108Z,15.59
2022-07-27T00:37:04.109Z,15.57
2022-07-27T00:38:04.133Z,15.59
2022-07-27T00:39:04.109Z,15.58
2022-07-27T00:40:04.109Z,15.49
2022-07-27T00:41:04.106Z,15.42
2022-07-27T00:42:04.109Z,15.55
2022-07-27T00:43:04.109Z,15.44
2022-07-27T00:44:04.106Z,15.43
2022-07-27T00:45:04.105Z,15.47
2022-07-27T00:46:04.742Z,15.46
2022-07-27T00:47:04.190Z,15.46
2022-07-27T00:48:04.104Z,15.52
2022-07-27T00:49:04.144Z,15.36
2022-07-27T00:50:04.111Z,15.37
2022-07-27T00:51:04.101Z,15.43
2022-07-27T00:52:04.100Z,15.33
2022-07-27T00:53:04.099Z,15.31
2022-07-27T00:54:04.107Z,15.40
2022-07-27T00:55:04.108Z,15.37
2022-07-27T00:56:04.102Z,15.37
2022-07-27T00:57:04.101Z,15.36
2022-07-27T00:58:04.102Z,15.29
2022-07-27T00:59:04.298Z,15.35
2022-07-27T01:00:04.100Z,15.37
2022-07-27T01:01:04.098Z,15.36
2022-07-27T01:02:04.208Z,15.40
2022-07-27T01:03:09.255Z,15.40
2022-07-27T01:04:04.096Z,15.39
2022-07-27T01:05:04.094Z,15.44
2022-07-27T01:06:04.100Z,15.42
2022-07-27T01:07:04.095Z,15.36
2022-07-27T01:08:04.094Z,15.40
2022-07-27T01:09:04.093Z,15.40
2022-07-27T01:10:04.093Z,15.40
2022-07-27T01:11:04.094Z,15.37
2022-07-27T01:12:04.094Z,15.31
2022-07-27T01:13:04.093Z,15.37
2022-07-27T01:14:04.094Z,15.42
2022-07-27T01:15:04.092Z,15.39
2022-07-27T01:16:04.149Z,15.33
2022-07-27T01:17:04.088Z,15.35
2022-07-27T01:18:04.089Z,15.37
2022-07-27T01:19:04.088Z,15.36
2022-07-27T01:20:04.089Z,15.40
2022-07-27T01:21:04.099Z,15.39
2022-07-27T01:22:04.087Z,15.37
2022-07-27T01:23:04.088Z,15.39
2022-07-27T01:24:04.092Z,15.36
2022-07-27T01:25:04.091Z,15.36
2022-07-27T01:26:04.090Z,15.37
2022-07-27T01:27:04.088Z,15.36
2022-07-27T01:28:04.087Z,15.36
2022-07-27T01:29:04.088Z,15.33
2022-07-27T01:30:04.083Z,15.31
2022-07-27T01:31:04.144Z,15.37
2022-07-27T01:32:04.084Z,15.25
2022-07-27T01:33:04.087Z,15.33
2022-07-27T01:34:04.085Z,15.22
2022-07-27T01:35:04.083Z,15.28
2022-07-27T01:36:04.079Z,15.24
2022-07-27T01:37:04.082Z,15.25
2022-07-27T01:38:04.080Z,15.14
2022-07-27T01:39:04.082Z,15.15
2022-07-27T01:40:04.079Z,15.15
2022-07-27T01:41:04.078Z,15.17
2022-07-27T01:42:04.082Z,15.15
2022-07-27T01:43:04.078Z,15.17
2022-07-27T01:44:04.075Z,15.10
2022-07-27T01:45:04.079Z,15.10
2022-07-27T01:46:04.161Z,15.18
2022-07-27T01:47:04.097Z,15.17
2022-07-27T01:48:04.078Z,15.19
2022-07-27T01:49:04.169Z,15.15
2022-07-27T01:50:04.084Z,15.03
2022-07-27T01:51:04.077Z,15.15
2022-07-27T01:52:04.074Z,15.14
2022-07-27T01:53:04.076Z,15.10
2022-07-27T01:54:04.073Z,15.06
2022-07-27T01:55:04.075Z,15.06
2022-07-27T01:56:04.071Z,15.02
2022-07-27T01:57:04.072Z,15.04
2022-07-27T01:58:04.075Z,14.99
2022-07-27T01:59:04.075Z,15.03
2022-07-27T02:00:04.082Z,14.99
2022-07-27T02:01:04.078Z,14.97
2022-07-27T02:02:04.098Z,14.96
2022-07-27T02:03:04.074Z,14.88
2022-07-27T02:04:04.068Z,14.88
2022-07-27T02:05:04.124Z,14.86
2022-07-27T02:06:04.070Z,14.85
2022-07-27T02:07:04.069Z,14.88
2022-07-27T02:08:04.069Z,14.77
2022-07-27T02:09:04.071Z,14.70
2022-07-27T02:10:04.065Z,14.77
2022-07-27T02:11:04.065Z,14.73
2022-07-27T02:12:04.063Z,14.68
2022-07-27T02:13:21.987Z,14.70
2022-07-27T02:14:04.115Z,14.59
2022-07-27T02:15:05.825Z,14.62
2022-07-27T02:16:04.098Z,14.58
2022-07-27T02:17:04.063Z,14.63
2022-07-27T02:18:04.059Z,14.63
2022-07-27T02:19:04.872Z,14.60
2022-07-27T02:20:04.061Z,14.59
2022-07-27T02:21:04.062Z,14.63
2022-07-27T02:22:04.057Z,14.65
2022-07-27T02:23:04.060Z,14.65
2022-07-27T02:24:04.055Z,14.51
2022-07-27T02:25:04.060Z,14.58
2022-07-27T02:26:04.057Z,14.48
2022-07-27T02:27:04.054Z,14.53
2022-07-27T02:28:04.054Z,14.53
2022-07-27T02:29:04.053Z,14.47
2022-07-27T02:30:04.054Z,14.41
2022-07-27T02:31:04.053Z,14.43
2022-07-27T02:32:04.050Z,14.43
2022-07-27T02:33:04.224Z,14.36
2022-07-27T02:34:04.050Z,14.43
2022-07-27T02:35:18.640Z,14.43
2022-07-27T02:36:04.050Z,14.37
2022-07-27T02:37:04.056Z,14.40
2022-07-27T02:38:04.047Z,14.45
2022-07-27T02:39:04.047Z,14.30
2022-07-27T02:40:04.048Z,14.30
2022-07-27T02:41:04.047Z,14.26
2022-07-27T02:42:04.046Z,14.29
2022-07-27T02:43:04.041Z,14.23
2022-07-27T02:44:04.052Z,14.20
2022-07-27T02:45:04.041Z,14.26
2022-07-27T02:46:04.127Z,14.22
2022-07-27T02:47:04.038Z,14.18
2022-07-27T02:48:04.112Z,14.23
2022-07-27T02:49:04.147Z,14.20
2022-07-27T02:50:04.037Z,14.17
2022-07-27T02:51:04.033Z,14.23
2022-07-27T02:52:04.028Z,14.22
2022-07-27T02:53:04.035Z,14.20
2022-07-27T02:54:04.024Z,14.25
2022-07-27T02:55:04.025Z,14.28
2022-07-27T02:56:04.038Z,14.25
2022-07-27T02:57:04.019Z,14.25
2022-07-27T02:58:04.016Z,14.18
2022-07-27T02:59:04.012Z,14.23
2022-07-27T03:00:04.010Z,14.20
2022-07-27T03:01:04.053Z,14.20
2022-07-27T03:02:04.045Z,14.22
2022-07-27T03:03:04.008Z,14.18
2022-07-27T03:04:04.031Z,14.20
2022-07-27T03:05:04.002Z,14.12
2022-07-27T03:06:03.996Z,14.18
2022-07-27T03:07:03.996Z,14.10
2022-07-27T03:08:03.998Z,14.07
2022-07-27T03:09:03.994Z,14.04
2022-07-27T03:10:03.988Z,13.95
2022-07-27T03:11:03.990Z,14.05
2022-07-27T03:12:03.980Z,13.90
2022-07-27T03:13:03.986Z,13.92
2022-07-27T03:14:03.976Z,13.86
2022-07-27T03:15:03.978Z,13.86
2022-07-27T03:16:04.009Z,13.90
2022-07-27T03:17:03.973Z,13.79
2022-07-27T03:18:03.968Z,13.87
2022-07-27T03:19:03.972Z,13.85
2022-07-27T03:20:03.978Z,13.74
2022-07-27T03:21:03.963Z,13.70
2022-07-27T03:22:03.959Z,13.60
2022-07-27T03:23:03.959Z,13.62
2022-07-27T03:24:03.953Z,13.54
2022-07-27T03:25:03.953Z,13.56
2022-07-27T03:26:03.949Z,13.60
2022-07-27T03:27:03.949Z,13.63
2022-07-27T03:28:04.492Z,13.60
2022-07-27T03:29:03.947Z,13.59
2022-07-27T03:30:04.381Z,13.75
2022-07-27T03:31:04.045Z,13.74
2022-07-27T03:32:03.936Z,13.74
2022-07-27T03:33:03.933Z,13.87
2022-07-27T03:34:03.929Z,13.79
2022-07-27T03:35:03.928Z,13.72
2022-07-27T03:36:03.923Z,13.78
2022-07-27T03:37:03.923Z,13.62
2022-07-27T03:38:03.920Z,13.59
2022-07-27T03:39:06.136Z,13.63
2022-07-27T03:40:03.914Z,13.68
2022-07-27T03:41:03.915Z,13.78
2022-07-27T03:42:03.916Z,13.62
2022-07-27T03:43:03.910Z,13.62
2022-07-27T03:44:03.904Z,13.56
2022-07-27T03:45:03.905Z,13.42
2022-07-27T03:46:04.018Z,13.31
2022-07-27T03:47:03.916Z,13.27
2022-07-27T03:48:03.897Z,13.18
2022-07-27T03:49:14.273Z,13.13
2022-07-27T03:50:03.891Z,12.94
2022-07-27T03:51:03.886Z,12.91
2022-07-27T03:52:03.887Z,12.86
2022-07-27T03:53:03.892Z,12.79
2022-07-27T03:54:03.879Z,12.75
2022-07-27T03:55:03.883Z,12.80
2022-07-27T03:56:03.877Z,12.73
2022-07-27T03:57:03.872Z,12.90
2022-07-27T03:58:03.867Z,12.73
2022-07-27T03:59:03.868Z,12.67
2022-07-27T04:00:03.863Z,12.58
2022-07-27T04:01:03.901Z,12.61
2022-07-27T04:02:03.896Z,12.64
2022-07-27T04:03:04.064Z,12.75
2022-07-27T04:04:03.853Z,12.80
2022-07-27T04:05:03.853Z,12.75
2022-07-27T04:06:03.848Z,12.72
2022-07-27T04:07:03.855Z,12.85
2022-07-27T04:08:03.841Z,12.75
2022-07-27T04:09:08.522Z,12.73
2022-07-27T04:10:03.871Z,12.65
2022-07-27T04:11:03.838Z,12.61
2022-07-27T04:12:03.833Z,12.62
2022-07-27T04:13:03.884Z,12.64
2022-07-27T04:14:03.857Z,12.67
2022-07-27T04:15:03.848Z,12.73
2022-07-27T04:16:03.845Z,12.85
2022-07-27T04:17:03.966Z,12.91
2022-07-27T04:18:03.816Z,12.79
2022-07-27T04:19:03.966Z,12.86
2022-07-27T04:20:03.808Z,12.90
2022-07-27T04:21:03.808Z,13.04
2022-07-27T04:22:06.424Z,13.13
2022-07-27T04:23:06.428Z,13.18
2022-07-27T04:34:30.608Z,12.93
2022-07-27T04:37:30.600Z,12.91
2022-07-27T04:38:30.594Z,12.91
2022-07-27T04:39:30.592Z,12.95
2022-07-27T04:40:30.589Z,13.00
2022-07-27T04:42:30.583Z,13.00
2022-07-27T04:43:30.587Z,12.97
2022-07-27T04:44:30.640Z,13.01
2022-07-27T04:45:30.756Z,13.00
2022-07-27T04:46:30.712Z,13.09
2022-07-27T04:49:23.193Z,13.18
2022-07-27T04:50:23.130Z,13.16
2022-07-27T04:51:23.127Z,13.33
2022-07-27T04:52:26.513Z,13.20
2022-07-27T04:53:23.121Z,13.23
2022-07-27T04:54:23.116Z,13.25
2022-07-27T04:55:23.133Z,13.25
2022-07-27T04:56:23.125Z,13.28
2022-07-27T04:57:23.136Z,13.25
2022-07-27T04:58:23.112Z,13.28
2022-07-27T04:59:23.109Z,13.30
2022-07-27T05:00:23.106Z,13.30
2022-07-27T05:01:23.360Z,13.30
2022-07-27T05:02:23.101Z,13.35
2022-07-27T05:03:23.100Z,13.47
2022-07-27T05:04:23.124Z,13.42
2022-07-27T05:05:23.091Z,13.47
2022-07-27T05:06:23.099Z,13.49
2022-07-27T05:07:23.080Z,13.49
2022-07-27T05:08:23.080Z,13.50
2022-07-27T05:09:23.075Z,13.49
2022-07-27T05:10:23.070Z,13.46
2022-07-27T05:11:23.068Z,13.52
2022-07-27T05:12:23.063Z,13.50
2022-07-27T05:13:23.068Z,13.54
2022-07-27T05:14:23.065Z,13.59
2022-07-27T05:15:23.052Z,13.57
2022-07-27T05:16:28.291Z,13.62
2022-07-27T05:17:23.050Z,13.67
2022-07-27T05:18:23.046Z,13.65
2022-07-27T05:19:23.046Z,13.75
2022-07-27T05:20:23.042Z,13.81
2022-07-27T05:21:23.036Z,13.89
2022-07-27T05:22:23.030Z,13.72
2022-07-27T05:23:23.030Z,13.72
2022-07-27T05:24:23.024Z,13.81
2022-07-27T05:25:23.022Z,13.92
2022-07-27T05:26:23.020Z,13.97
2022-07-27T05:27:23.016Z,13.90
2022-07-27T05:28:23.010Z,13.95
2022-07-27T05:29:23.012Z,13.87
2022-07-27T05:30:23.010Z,13.93
2022-07-27T05:31:23.028Z,13.93
2022-07-27T05:32:22.997Z,14.04
2022-07-27T05:33:22.998Z,13.95
2022-07-27T05:34:22.993Z,14.05
2022-07-27T05:35:22.991Z,14.07
2022-07-27T05:36:22.986Z,13.93
2022-07-27T05:37:22.986Z,14.04
2022-07-27T05:38:22.980Z,14.14
2022-07-27T05:39:22.981Z,14.14
2022-07-27T05:40:22.973Z,14.14
2022-07-27T05:41:22.978Z,14.18
2022-07-27T05:42:22.972Z,14.20
2022-07-27T05:43:22.965Z,14.25
2022-07-27T05:44:22.965Z,14.22
2022-07-27T05:45:23.034Z,14.32
2022-07-27T05:46:23.079Z,14.33
2022-07-27T05:47:22.953Z,14.36
2022-07-27T05:48:22.952Z,14.45
2022-07-27T05:49:23.032Z,14.54
2022-07-27T05:50:22.944Z,14.50
2022-07-27T05:51:22.943Z,14.53
2022-07-27T05:52:22.937Z,14.59
2022-07-27T05:53:22.938Z,14.63
2022-07-27T05:54:22.930Z,14.62
2022-07-27T05:55:22.927Z,14.68
2022-07-27T05:56:22.924Z,14.72
2022-07-27T05:57:22.922Z,14.73
2022-07-27T05:58:23.157Z,14.78
2022-07-27T05:59:22.919Z,14.85
2022-07-27T06:00:22.912Z,14.86
2022-07-27T06:01:22.987Z,14.92
2022-07-27T06:02:22.907Z,14.92
2022-07-27T06:03:22.944Z,14.89
2022-07-27T06:04:22.900Z,14.89
2022-07-27T06:05:22.899Z,14.96
2022-07-27T06:06:22.899Z,14.92
2022-07-27T06:07:22.891Z,15.00
2022-07-27T06:08:22.888Z,15.00
2022-07-27T06:09:22.887Z,15.10
2022-07-27T06:10:22.883Z,15.06
2022-07-27T06:11:22.882Z,15.09
2022-07-27T06:12:22.877Z,15.03
2022-07-27T06:13:26.693Z,15.07
2022-07-27T06:14:22.869Z,15.07
2022-07-27T06:15:22.869Z,15.14
2022-07-27T06:16:22.920Z,15.24
2022-07-27T06:17:22.866Z,15.21
2022-07-27T06:18:22.876Z,15.31
2022-07-27T06:19:22.866Z,15.22
2022-07-27T06:20:22.853Z,15.22
2022-07-27T06:21:22.852Z,15.29
2022-07-27T06:22:22.861Z,15.36
2022-07-27T06:23:22.847Z,15.33
2022-07-27T06:24:22.840Z,15.36
2022-07-27T06:25:22.840Z,15.36
2022-07-27T06:26:22.839Z,15.33
2022-07-27T06:27:27.172Z,15.36
2022-07-27T06:28:22.830Z,15.36
2022-07-27T06:29:22.830Z,15.40
2022-07-27T06:30:22.826Z,15.40
2022-07-27T06:31:22.884Z,15.46
2022-07-27T06:32:22.822Z,15.40
2022-07-27T06:33:22.821Z,15.51
2022-07-27T06:34:22.811Z,15.58
2022-07-27T06:35:22.811Z,15.57
2022-07-27T06:36:22.808Z,15.59
2022-07-27T06:37:22.806Z,15.67
2022-07-27T06:38:22.802Z,15.65
2022-07-27T06:39:22.800Z,15.65
2022-07-27T06:40:26.280Z,15.72
2022-07-27T06:41:22.792Z,15.76
2022-07-27T06:42:22.792Z,15.75
2022-07-27T06:43:22.788Z,15.75
2022-07-27T06:44:22.788Z,15.70
2022-07-27T06:45:22.784Z,15.75
2022-07-27T06:46:22.858Z,15.70
2022-07-27T06:47:25.987Z,15.70
2022-07-27T06:48:22.773Z,15.76
2022-07-27T06:49:22.826Z,15.84
2022-07-27T06:50:22.768Z,15.82
2022-07-27T06:51:22.764Z,15.86
2022-07-27T06:52:22.768Z,15.92
2022-07-27T06:53:22.778Z,15.90
2022-07-27T06:54:22.758Z,15.86
2022-07-27T06:55:22.757Z,15.86
2022-07-27T06:56:22.752Z,15.86
2022-07-27T06:57:22.749Z,16.00
2022-07-27T06:58:22.756Z,16.02
2022-07-27T06:59:22.751Z,15.98
2022-07-27T07:00:22.743Z,16.01
2022-07-27T07:01:22.802Z,16.08
2022-07-27T07:02:22.735Z,16.05
2022-07-27T07:03:22.789Z,16.08
2022-07-27T07:04:23.945Z,16.08
2022-07-27T07:05:22.726Z,16.12
2022-07-27T07:06:22.725Z,16.13
2022-07-27T07:07:22.721Z,16.10
2022-07-27T07:08:22.717Z,16.16
2022-07-27T07:09:22.715Z,16.08
2022-07-27T07:10:23.940Z,16.24
2022-07-27T07:11:22.713Z,16.20
2022-07-27T07:12:22.713Z,16.16
2022-07-27T07:13:22.705Z,16.20
2022-07-27T07:14:22.702Z,16.20
2022-07-27T07:15:22.696Z,16.17
2022-07-27T07:16:22.743Z,16.28
2022-07-27T07:17:22.699Z,16.31
2022-07-27T07:18:22.694Z,16.32
2022-07-27T07:19:22.700Z,16.39
2022-07-27T07:20:22.693Z,16.38
2022-07-27T07:21:22.693Z,16.31
2022-07-27T07:22:22.682Z,16.31
2022-07-27T07:23:22.681Z,16.43
2022-07-27T07:24:22.673Z,16.36
2022-07-27T07:25:22.677Z,16.42
2022-07-27T07:26:22.669Z,16.36
2022-07-27T07:27:22.666Z,16.43
2022-07-27T07:28:22.665Z,16.33
2022-07-27T07:29:22.664Z,16.41
2022-07-27T07:30:22.713Z,16.38
2022-07-27T07:31:22.779Z,16.35
2022-07-27T07:32:22.654Z,16.43
2022-07-27T07:33:22.652Z,16.36
2022-07-27T07:34:22.649Z,16.47
2022-07-27T07:35:22.646Z,16.43
2022-07-27T07:36:22.670Z,16.54
2022-07-27T07:37:22.684Z,16.61
2022-07-27T07:38:22.651Z,16.72
2022-07-27T07:39:24.679Z,16.66
2022-07-27T07:40:42.691Z,16.74
2022-07-27T07:41:22.635Z,16.69
2022-07-27T07:42:22.629Z,16.72
2022-07-27T07:43:22.628Z,16.71
2022-07-27T07:44:22.629Z,16.78
2022-07-27T07:45:22.625Z,16.79
2022-07-27T07:46:22.691Z,16.83
2022-07-27T07:47:22.617Z,16.79
2022-07-27T07:48:22.616Z,16.86
2022-07-27T07:49:39.288Z,16.97
2022-07-27T07:50:22.716Z,16.87
2022-07-27T07:51:22.612Z,16.97
2022-07-27T07:52:22.608Z,16.93
2022-07-27T07:53:22.660Z,16.97
2022-07-27T07:54:22.606Z,16.94
2022-07-27T07:55:22.603Z,16.94
2022-07-27T07:56:22.597Z,17.09
2022-07-27T07:57:22.604Z,17.15
2022-07-27T07:58:22.598Z,17.12
2022-07-27T07:59:22.596Z,17.12
2022-07-27T08:00:22.591Z,17.08
2022-07-27T08:01:22.643Z,17.16
2022-07-27T08:02:22.586Z,17.11
2022-07-27T08:03:22.671Z,17.06
2022-07-27T08:04:22.587Z,16.99
2022-07-27T08:05:22.588Z,16.81
2022-07-27T08:06:22.580Z,16.81
2022-07-27T08:07:22.578Z,16.65
2022-07-27T08:08:24.907Z,16.51
2022-07-27T08:09:22.573Z,16.56
2022-07-27T08:10:22.570Z,16.61
2022-07-27T08:11:22.567Z,16.68
2022-07-27T08:12:22.583Z,16.78
2022-07-27T08:13:22.789Z,16.94
2022-07-27T08:14:22.566Z,17.01
2022-07-27T08:15:34.620Z,17.15
2022-07-27T08:16:22.611Z,17.09
2022-07-27T08:17:22.566Z,17.06
2022-07-27T08:18:22.559Z,16.97
2022-07-27T08:19:22.552Z,16.96
2022-07-27T08:20:22.552Z,16.99
2022-07-27T08:21:22.599Z,17.05
2022-07-27T08:22:22.551Z,17.12
2022-07-27T08:23:22.549Z,17.11
2022-07-27T08:24:22.551Z,17.09
2022-07-27T08:25:22.544Z,16.96
2022-07-27T08:26:22.544Z,16.93
2022-07-27T08:27:22.545Z,16.84
2022-07-27T08:28:22.539Z,16.76
2022-07-27T08:29:23.280Z,16.75
2022-07-27T08:30:22.558Z,16.69
2022-07-27T08:31:26.539Z,16.72
2022-07-27T08:32:22.654Z,16.81
2022-07-27T08:33:22.534Z,17.01
2022-07-27T08:34:22.538Z,17.16
2022-07-27T08:35:22.543Z,17.12
2022-07-27T08:36:22.527Z,17.14
2022-07-27T08:37:22.533Z,17.26
2022-07-27T08:38:22.529Z,17.26
2022-07-27T08:40:05.350Z,17.39
2022-07-27T08:40:40.606Z,17.54
2022-07-27T08:41:22.590Z,17.67
2022-07-27T08:42:22.529Z,17.72
2022-07-27T08:43:25.150Z,17.89
2022-07-27T08:44:22.536Z,17.86
2022-07-27T08:45:22.524Z,17.92
2022-07-27T08:46:22.648Z,18.04
2022-07-27T08:47:22.526Z,18.11
2022-07-27T08:48:22.523Z,18.08
2022-07-27T08:49:28.689Z,18.03
2022-07-27T08:50:22.523Z,18.20
2022-07-27T08:51:22.606Z,18.49
2022-07-27T08:52:22.520Z,18.62
2022-07-27T08:53:22.525Z,18.84
2022-07-27T08:54:22.521Z,19.07
2022-07-27T08:55:22.523Z,19.37
2022-07-27T08:56:22.521Z,19.40
2022-07-27T08:57:22.525Z,19.48
2022-07-27T08:58:22.521Z,19.40
2022-07-27T08:59:22.518Z,19.14
2022-07-27T09:00:22.521Z,18.92
2022-07-27T09:01:22.661Z,18.66
2022-07-27T09:02:22.676Z,18.52
2022-07-27T09:03:22.649Z,18.33
2022-07-27T09:04:22.519Z,18.31
2022-07-27T09:05:22.518Z,18.11
2022-07-27T09:06:22.518Z,18.05
2022-07-27T09:07:22.519Z,17.94
2022-07-27T09:08:22.527Z,17.86
2022-07-27T09:09:22.519Z,17.79
2022-07-27T09:10:22.517Z,17.78
2022-07-27T09:11:22.515Z,17.70
2022-07-27T09:12:22.514Z,17.78
2022-07-27T09:13:22.513Z,17.68
2022-07-27T09:14:22.516Z,17.71
2022-07-27T09:15:22.520Z,17.74
2022-07-27T09:16:22.595Z,17.67
2022-07-27T09:17:51.002Z,17.68
2022-07-27T09:18:22.551Z,17.65
2022-07-27T09:19:22.511Z,17.71
2022-07-27T09:20:22.554Z,17.74
2022-07-27T09:21:22.663Z,17.82
2022-07-27T09:22:22.519Z,17.79
2022-07-27T09:23:22.505Z,17.85
2022-07-27T09:24:45.664Z,17.89
2022-07-27T09:25:44.900Z,17.86
2022-07-27T09:26:31.957Z,17.95
2022-07-27T09:27:22.499Z,17.97
2022-07-27T09:28:22.502Z,18.00
2022-07-27T09:29:22.498Z,17.95
2022-07-27T09:30:22.497Z,17.92
2022-07-27T09:31:22.667Z,17.89
2022-07-27T09:32:22.495Z,17.87
2022-07-27T09:33:22.495Z,17.89
2022-07-27T09:34:22.495Z,17.92
2022-07-27T09:35:22.492Z,18.00
2022-07-27T09:36:22.493Z,17.95
2022-07-27T09:37:22.489Z,18.00
2022-07-27T09:38:22.491Z,17.95
2022-07-27T09:39:22.486Z,17.97
2022-07-27T09:40:25.591Z,17.89
2022-07-27T09:41:22.485Z,17.87
2022-07-27T09:44:43.295Z,17.59
2022-07-27T09:45:22.483Z,17.63
2022-07-27T09:46:22.523Z,17.54
2022-07-27T09:47:22.477Z,17.57
2022-07-27T09:48:22.479Z,17.54
2022-07-27T09:49:22.546Z,17.51
2022-07-27T09:50:22.483Z,17.54
2022-07-27T09:51:58.226Z,17.54
2022-07-27T09:52:22.476Z,17.54
2022-07-27T09:53:41.228Z,17.56
2022-07-27T09:54:22.467Z,17.56
2022-07-27T09:55:22.465Z,17.63
2022-07-27T09:56:22.467Z,17.54
2022-07-27T09:57:22.473Z,17.52
2022-07-27T09:58:22.462Z,17.49
2022-07-27T09:59:22.481Z,17.68
2022-07-27T10:00:22.476Z,17.48
2022-07-27T10:01:22.521Z,17.48
2022-07-27T10:02:22.528Z,17.44
2022-07-27T10:03:22.462Z,17.38
2022-07-27T10:04:22.525Z,17.39
2022-07-27T10:05:22.459Z,17.39
2022-07-27T10:06:22.460Z,17.39
2022-07-27T10:07:22.452Z,17.34
2022-07-27T10:08:22.452Z,17.52
2022-07-27T10:09:22.449Z,17.51
2022-07-27T10:10:22.447Z,17.52
2022-07-27T10:11:22.444Z,17.51
2022-07-27T10:12:23.546Z,17.54
2022-07-27T10:13:22.440Z,17.65
2022-07-27T10:14:22.444Z,17.71
2022-07-27T10:15:22.443Z,17.68
2022-07-27T10:16:22.503Z,17.72
2022-07-27T10:17:22.433Z,17.80
2022-07-27T10:18:22.435Z,17.87
2022-07-27T10:19:22.430Z,17.86
2022-07-27T10:20:22.429Z,18.00
2022-07-27T10:21:22.424Z,17.98
2022-07-27T10:22:22.426Z,18.16
2022-07-27T10:23:22.427Z,18.23
2022-07-27T10:24:22.435Z,18.22
2022-07-27T10:25:22.422Z,18.20
2022-07-27T10:26:22.420Z,18.25
2022-07-27T10:27:22.507Z,18.18
2022-07-27T10:28:22.418Z,18.10
2022-07-27T10:29:22.414Z,18.16
2022-07-27T10:30:23.986Z,17.97
2022-07-27T10:31:22.477Z,17.89
2022-07-27T10:32:22.412Z,18.01
2022-07-27T10:33:22.407Z,18.05
2022-07-27T10:34:22.406Z,17.98
2022-07-27T10:35:22.403Z,17.90
2022-07-27T10:36:22.405Z,18.04
2022-07-27T10:37:22.400Z,18.04
2022-07-27T10:38:22.404Z,17.97
2022-07-27T10:39:22.396Z,17.92
2022-07-27T10:40:22.400Z,17.95
2022-07-27T10:41:22.402Z,17.97
2022-07-27T10:42:22.397Z,18.05
2022-07-27T10:43:22.399Z,18.08
2022-07-27T10:44:22.391Z,18.04
2022-07-27T10:45:22.586Z,18.11
2022-07-27T10:46:22.435Z,18.10
2022-07-27T10:47:22.382Z,18.16
2022-07-27T10:48:22.382Z,18.11
2022-07-27T10:49:22.498Z,18.35
2022-07-27T10:50:22.390Z,18.26
2022-07-27T10:51:22.377Z,18.40
2022-07-27T10:52:22.378Z,18.40
2022-07-27T10:53:22.374Z,18.41
2022-07-27T10:54:22.374Z,18.43
2022-07-27T10:55:22.370Z,18.41
2022-07-27T10:56:22.369Z,18.52
2022-07-27T10:57:22.367Z,18.59
2022-07-27T10:58:22.369Z,18.63
2022-07-27T10:59:22.364Z,18.60
2022-07-27T11:00:22.369Z,18.62
2022-07-27T11:01:22.424Z,18.56
2022-07-27T11:02:22.360Z,18.62
2022-07-27T11:03:22.356Z,18.63
2022-07-27T11:04:22.379Z,18.83
2022-07-27T11:05:58.381Z,18.80
2022-07-27T11:07:24.809Z,18.77
2022-07-27T11:08:46.707Z,18.81
2022-07-27T11:10:22.345Z,18.89
2022-07-27T11:11:22.342Z,18.86
2022-07-27T11:12:22.341Z,18.93
2022-07-27T11:13:22.340Z,18.92
2022-07-27T11:14:30.803Z,18.93
2022-07-27T11:15:22.335Z,18.88
2022-07-27T11:16:24.403Z,18.93
2022-07-27T11:17:52.431Z,18.89
2022-07-27T11:18:22.376Z,18.92
2022-07-27T11:19:22.424Z,18.80
2022-07-27T11:20:22.332Z,18.81
2022-07-27T11:21:26.537Z,18.84
2022-07-27T11:22:39.631Z,18.78
2022-07-27T11:23:52.198Z,18.77
2022-07-27T11:24:22.322Z,18.74
2022-07-27T11:25:22.320Z,18.83
2022-07-27T11:26:22.326Z,18.81
2022-07-27T11:27:25.350Z,18.80
2022-07-27T11:28:22.325Z,18.77
2022-07-27T11:29:22.341Z,18.60
2022-07-27T11:30:22.422Z,18.66
2022-07-27T11:31:45.262Z,18.62
2022-07-27T11:32:22.312Z,18.52
2022-07-27T11:33:22.311Z,18.55
2022-07-27T11:34:22.309Z,18.60
2022-07-27T11:35:22.308Z,18.66
2022-07-27T11:36:22.304Z,18.58
2022-07-27T11:37:22.306Z,18.52
2022-07-27T11:38:22.309Z,18.43
2022-07-27T11:39:54.362Z,18.53
2022-07-27T11:40:53.772Z,18.47
2022-07-27T11:41:40.973Z,18.55
2022-07-27T11:42:23.613Z,18.60
2022-07-27T11:43:22.290Z,18.62
2022-07-27T11:44:22.292Z,18.62
2022-07-27T11:45:22.290Z,18.65
2022-07-27T11:46:22.385Z,18.62
2022-07-27T11:47:22.287Z,18.73
2022-07-27T11:48:22.289Z,18.62
2022-07-27T11:49:22.718Z,18.74
2022-07-27T11:50:22.285Z,18.77
2022-07-27T11:51:22.281Z,18.77
2022-07-27T11:52:22.277Z,18.68
2022-07-27T11:53:22.278Z,18.74
2022-07-27T11:54:22.283Z,18.71
2022-07-27T11:55:22.271Z,18.74
2022-07-27T11:56:22.272Z,18.71
2022-07-27T11:57:22.268Z,18.71
2022-07-27T11:58:22.271Z,18.77
2022-07-27T11:59:22.269Z,18.71
2022-07-27T12:00:22.267Z,18.78
2022-07-27T12:01:22.271Z,18.83
2022-07-27T12:02:22.667Z,18.89
2022-07-27T12:03:22.265Z,18.86
2022-07-27T12:04:22.261Z,18.83
2022-07-27T12:05:22.331Z,18.84
2022-07-27T12:06:22.259Z,18.89
2022-07-27T12:07:22.299Z,18.89
2022-07-27T12:08:22.260Z,18.86
2022-07-27T12:09:22.252Z,18.77
2022-07-27T12:10:22.253Z,18.92
2022-07-27T12:11:26.054Z,18.92
2022-07-27T12:12:22.299Z,19.09
2022-07-27T12:13:22.248Z,19.14
2022-07-27T12:14:22.244Z,19.14
2022-07-27T12:15:45.321Z,19.31
2022-07-27T12:16:22.298Z,19.33
2022-07-27T12:17:22.240Z,19.22
2022-07-27T12:18:22.241Z,19.27
2022-07-27T12:19:22.234Z,19.30
2022-07-27T12:20:22.234Z,19.34
2022-07-27T12:21:22.237Z,19.24
2022-07-27T12:22:22.230Z,19.29
2022-07-27T12:23:22.228Z,19.27
2022-07-27T12:24:22.230Z,19.26
2022-07-27T12:25:22.224Z,19.29
2022-07-27T12:26:22.237Z,19.22
2022-07-27T12:27:22.227Z,19.22
2022-07-27T12:28:22.225Z,19.40
2022-07-27T12:29:22.220Z,19.31
2022-07-27T12:30:22.410Z,19.37
2022-07-27T12:31:22.299Z,19.36
2022-07-27T12:32:22.217Z,19.16
2022-07-27T12:33:22.223Z,19.26
2022-07-27T12:34:22.222Z,19.12
2022-07-27T12:35:22.216Z,19.14
2022-07-27T12:36:22.217Z,19.11
2022-07-27T12:37:22.214Z,19.14
2022-07-27T12:38:22.210Z,19.04
2022-07-27T12:39:22.204Z,18.95
2022-07-27T12:40:22.209Z,18.88
2022-07-27T12:41:22.202Z,18.96
2022-07-27T12:42:22.202Z,18.92
2022-07-27T12:43:22.206Z,18.92
2022-07-27T12:44:22.203Z,18.93
2022-07-27T12:45:22.212Z,18.92
2022-07-27T12:46:22.364Z,18.95
2022-07-27T12:47:27.146Z,18.90
2022-07-27T12:48:22.194Z,18.93
2022-07-27T12:49:22.400Z,18.90
2022-07-27T12:50:22.191Z,18.92
2022-07-27T12:51:22.186Z,18.92
2022-07-27T12:52:22.188Z,18.92
2022-07-27T12:53:22.185Z,18.93
2022-07-27T12:54:22.183Z,18.92
2022-07-27T12:55:22.186Z,18.99
2022-07-27T12:56:26.985Z,19.07
2022-07-27T12:57:53.388Z,19.11
2022-07-27T12:58:22.185Z,19.04
2022-07-27T12:59:22.175Z,19.14
2022-07-27T13:00:22.339Z,19.14
2022-07-27T13:01:22.243Z,19.07
2022-07-27T13:02:22.218Z,19.14
2022-07-27T13:03:22.167Z,19.12
2022-07-27T13:04:22.166Z,19.18
2022-07-27T13:05:22.414Z,19.19
2022-07-27T13:06:22.167Z,19.18
2022-07-27T13:07:22.161Z,19.33
2022-07-27T13:08:22.166Z,19.22
2022-07-27T13:09:22.163Z,19.22
2022-07-27T13:10:22.159Z,19.29
2022-07-27T13:11:22.156Z,19.34